sensor_id;sensor_type;location;lat;lon;timestamp;pressure;altitude;pressure_sealevel;temperature;humidity
38880;BME280;25887;30.194;-97.880;2023-02-12T00:00:06;99288.09;;;16.03;31.03
38880;BME280;25887;30.194;-97.880;2023-02-12T00:02:33;99288.09;;;16.00;31.24
38880;BME280;25887;30.194;-97.880;2023-02-12T00:04:59;99298.50;;;15.99;31.13
38880;BME280;25887;30.194;-97.880;2023-02-12T00:07:27;99294.19;;;15.96;31.33
38880;BME280;25887;30.194;-97.880;2023-02-12T00:09:53;99301.97;;;15.93;31.41
38880;BME280;25887;30.194;-97.880;2023-02-12T00:12:29;99295.97;;;15.91;31.29
38880;BME280;25887;30.194;-97.880;2023-02-12T00:14:54;99302.00;;;15.87;31.53
38880;BME280;25887;30.194;-97.880;2023-02-12T00:17:20;99300.31;;;15.83;31.28
38880;BME280;25887;30.194;-97.880;2023-02-12T00:20:03;99296.91;;;15.78;31.41
38880;BME280;25887;30.194;-97.880;2023-02-12T00:22:29;99302.09;;;15.75;31.55
38880;BME280;25887;30.194;-97.880;2023-02-12T00:24:55;99307.28;;;15.72;31.40
38880;BME280;25887;30.194;-97.880;2023-02-12T00:27:21;99311.66;;;15.67;31.63
38880;BME280;25887;30.194;-97.880;2023-02-12T00:29:47;99310.81;;;15.62;31.49
38880;BME280;25887;30.194;-97.880;2023-02-12T00:32:13;99308.22;;;15.57;31.61
38880;BME280;25887;30.194;-97.880;2023-02-12T00:34:46;99311.69;;;15.53;31.64
38880;BME280;25887;30.194;-97.880;2023-02-12T00:37:12;99313.44;;;15.48;31.68
38880;BME280;25887;30.194;-97.880;2023-02-12T00:39:38;99315.19;;;15.43;31.75
38880;BME280;25887;30.194;-97.880;2023-02-12T00:42:04;99316.94;;;15.38;31.74
38880;BME280;25887;30.194;-97.880;2023-02-12T00:44:30;99321.28;;;15.31;31.74
38880;BME280;25887;30.194;-97.880;2023-02-12T00:46:56;99328.22;;;15.26;31.82
38880;BME280;25887;30.194;-97.880;2023-02-12T00:52:44;99314.44;;;15.09;32.05
38880;BME280;25887;30.194;-97.880;2023-02-12T00:55:10;99319.66;;;15.01;32.14
38880;BME280;25887;30.194;-97.880;2023-02-12T00:57:36;99329.16;;;14.96;32.13
38880;BME280;25887;30.194;-97.880;2023-02-12T01:00:14;99333.47;;;14.86;32.21
38880;BME280;25887;30.194;-97.880;2023-02-12T01:03:00;99336.09;;;14.77;32.26
38880;BME280;25887;30.194;-97.880;2023-02-12T01:05:26;99333.50;;;14.69;32.24
38880;BME280;25887;30.194;-97.880;2023-02-12T01:07:52;99330.94;;;14.62;32.48
38880;BME280;25887;30.194;-97.880;2023-02-12T01:10:18;99321.47;;;14.53;32.29
38880;BME280;25887;30.194;-97.880;2023-02-12T01:12:47;99322.31;;;14.43;32.44
38880;BME280;25887;30.194;-97.880;2023-02-12T01:15:31;99326.63;;;14.33;32.38
38880;BME280;25887;30.194;-97.880;2023-02-12T01:17:56;99324.88;;;14.23;32.62
38880;BME280;25887;30.194;-97.880;2023-02-12T01:20:31;99327.47;;;14.15;32.83
38880;BME280;25887;30.194;-97.880;2023-02-12T01:22:56;99323.16;;;14.10;32.39
38880;BME280;25887;30.194;-97.880;2023-02-12T01:25:22;99323.16;;;14.04;32.75
38880;BME280;25887;30.194;-97.880;2023-02-12T01:27:48;99332.63;;;13.96;32.93
38880;BME280;25887;30.194;-97.880;2023-02-12T01:30:14;99332.59;;;13.88;33.01
38880;BME280;25887;30.194;-97.880;2023-02-12T01:32:40;99345.50;;;13.80;32.62
38880;BME280;25887;30.194;-97.880;2023-02-12T01:35:07;99347.19;;;13.74;32.85
38880;BME280;25887;30.194;-97.880;2023-02-12T01:37:34;99347.19;;;13.69;32.77
38880;BME280;25887;30.194;-97.880;2023-02-12T01:40:01;99342.03;;;13.64;33.13
38880;BME280;25887;30.194;-97.880;2023-02-12T01:42:29;99344.56;;;13.58;33.21
38880;BME280;25887;30.194;-97.880;2023-02-12T01:47:42;99369.47;;;13.46;33.01
38880;BME280;25887;30.194;-97.880;2023-02-12T01:50:10;99368.56;;;13.37;33.22
38880;BME280;25887;30.194;-97.880;2023-02-12T01:52:38;99370.25;;;13.29;33.03
38880;BME280;25887;30.194;-97.880;2023-02-12T01:55:05;99376.25;;;13.21;33.23
38880;BME280;25887;30.194;-97.880;2023-02-12T01:57:33;99401.09;;;13.14;33.50
38880;BME280;25887;30.194;-97.880;2023-02-12T02:00:01;99409.66;;;13.05;33.28
38880;BME280;25887;30.194;-97.880;2023-02-12T02:02:29;99416.47;;;12.99;33.35
38880;BME280;25887;30.194;-97.880;2023-02-12T02:04:56;99409.53;;;12.89;33.36
38880;BME280;25887;30.194;-97.880;2023-02-12T02:07:23;99412.94;;;12.81;33.75
38880;BME280;25887;30.194;-97.880;2023-02-12T02:09:49;99428.31;;;12.71;33.38
38880;BME280;25887;30.194;-97.880;2023-02-12T02:12:16;99431.69;;;12.61;33.79
38880;BME280;25887;30.194;-97.880;2023-02-12T02:15:00;99429.88;;;12.52;33.55
38880;BME280;25887;30.194;-97.880;2023-02-12T02:20:55;99427.13;;;12.32;34.05
38880;BME280;25887;30.194;-97.880;2023-02-12T02:23:08;99436.47;;;12.22;33.77
38880;BME280;25887;30.194;-97.880;2023-02-12T02:28:53;99440.53;;;12.02;34.06
38880;BME280;25887;30.194;-97.880;2023-02-12T02:36:14;99427.34;;;11.78;34.48
38880;BME280;25887;30.194;-97.880;2023-02-12T02:44:27;99426.28;;;11.60;34.57
38880;BME280;25887;30.194;-97.880;2023-02-12T02:46:58;99428.78;;;11.56;34.60
38880;BME280;25887;30.194;-97.880;2023-02-12T02:49:26;99437.34;;;11.53;34.51
38880;BME280;25887;30.194;-97.880;2023-02-12T02:52:04;99437.28;;;11.49;34.71
38880;BME280;25887;30.194;-97.880;2023-02-12T02:54:59;99435.47;;;11.41;34.54
38880;BME280;25887;30.194;-97.880;2023-02-12T02:58:09;99431.16;;;11.39;34.92
38880;BME280;25887;30.194;-97.880;2023-02-12T03:02:42;99427.59;;;11.31;34.75
38880;BME280;25887;30.194;-97.880;2023-02-12T03:05:44;99417.25;;;11.26;34.89
38880;BME280;25887;30.194;-97.880;2023-02-12T03:08:04;99409.41;;;11.19;34.82
38880;BME280;25887;30.194;-97.880;2023-02-12T03:11:04;99414.50;;;11.14;34.85
38880;BME280;25887;30.194;-97.880;2023-02-12T03:13:36;99402.41;;;11.08;35.16
38880;BME280;25887;30.194;-97.880;2023-02-12T03:16:13;99396.41;;;11.06;34.95
38880;BME280;25887;30.194;-97.880;2023-02-12T03:18:42;99397.16;;;11.01;35.13
38880;BME280;25887;30.194;-97.880;2023-02-12T03:21:11;99403.16;;;11.00;34.93
38880;BME280;25887;30.194;-97.880;2023-02-12T03:26:49;99405.66;;;10.97;35.22
38880;BME280;25887;30.194;-97.880;2023-02-12T03:29:13;99405.72;;;10.98;35.25
38880;BME280;25887;30.194;-97.880;2023-02-12T03:34:07;99402.28;;;10.99;35.29
38880;BME280;25887;30.194;-97.880;2023-02-12T03:39:07;99393.66;;;10.96;35.46
38880;BME280;25887;30.194;-97.880;2023-02-12T03:41:39;99406.47;;;10.93;35.47
38880;BME280;25887;30.194;-97.880;2023-02-12T03:44:23;99401.25;;;10.88;35.40
38880;BME280;25887;30.194;-97.880;2023-02-12T03:53:16;99395.94;;;10.76;35.36
38880;BME280;25887;30.194;-97.880;2023-02-12T04:05:28;99421.41;;;10.60;35.55
38880;BME280;25887;30.194;-97.880;2023-02-12T04:07:59;99423.94;;;10.59;36.11
38880;BME280;25887;30.194;-97.880;2023-02-12T04:43:30;99416.91;;;10.03;36.06
38880;BME280;25887;30.194;-97.880;2023-02-12T04:45:59;99404.03;;;10.00;36.16
38880;BME280;25887;30.194;-97.880;2023-02-12T04:48:42;99404.00;;;9.99;36.23
38880;BME280;25887;30.194;-97.880;2023-02-12T04:54:06;99385.16;;;9.97;36.01
38880;BME280;25887;30.194;-97.880;2023-02-12T04:56:31;99375.66;;;9.94;36.33
38880;BME280;25887;30.194;-97.880;2023-02-12T04:58:57;99369.66;;;9.92;36.08
38880;BME280;25887;30.194;-97.880;2023-02-12T05:01:28;99360.19;;;9.90;36.46
38880;BME280;25887;30.194;-97.880;2023-02-12T05:03:54;99370.47;;;9.90;36.59
38880;BME280;25887;30.194;-97.880;2023-02-12T05:06:20;99365.28;;;9.88;36.81
38880;BME280;25887;30.194;-97.880;2023-02-12T05:08:46;99362.66;;;9.85;36.43
38880;BME280;25887;30.194;-97.880;2023-02-12T05:11:12;99348.94;;;9.82;36.79
38880;BME280;25887;30.194;-97.880;2023-02-12T05:13:39;99342.00;;;9.77;36.54
38880;BME280;25887;30.194;-97.880;2023-02-12T05:16:08;99339.31;;;9.71;36.64
38880;BME280;25887;30.194;-97.880;2023-02-12T05:18:34;99332.34;;;9.64;36.88
38880;BME280;25887;30.194;-97.880;2023-02-12T05:21:02;99329.69;;;9.58;37.23
38880;BME280;25887;30.194;-97.880;2023-02-12T05:23:29;99329.63;;;9.57;36.52
38880;BME280;25887;30.194;-97.880;2023-02-12T05:25:58;99335.66;;;9.57;37.07
38880;BME280;25887;30.194;-97.880;2023-02-12T05:28:24;99328.75;;;9.56;36.55
38880;BME280;25887;30.194;-97.880;2023-02-12T05:30:50;99339.84;;;9.54;36.76
38880;BME280;25887;30.194;-97.880;2023-02-12T05:33:16;99352.66;;;9.54;36.61
38880;BME280;25887;30.194;-97.880;2023-02-12T05:35:42;99354.38;;;9.55;37.29
38880;BME280;25887;30.194;-97.880;2023-02-12T05:38:07;99353.50;;;9.53;37.12
38880;BME280;25887;30.194;-97.880;2023-02-12T05:40:33;99356.94;;;9.53;37.09
38880;BME280;25887;30.194;-97.880;2023-02-12T05:43:00;99357.75;;;9.51;37.46
38880;BME280;25887;30.194;-97.880;2023-02-12T05:45:26;99357.66;;;9.47;36.87
38880;BME280;25887;30.194;-97.880;2023-02-12T05:47:54;99341.28;;;9.41;37.33
38880;BME280;25887;30.194;-97.880;2023-02-12T05:50:19;99345.53;;;9.39;37.30
38880;BME280;25887;30.194;-97.880;2023-02-12T05:52:45;99342.91;;;9.36;37.29
38880;BME280;25887;30.194;-97.880;2023-02-12T05:55:11;99335.19;;;9.34;37.06
38880;BME280;25887;30.194;-97.880;2023-02-12T05:57:37;99341.91;;;9.29;37.62
38880;BME280;25887;30.194;-97.880;2023-02-12T06:00:03;99350.41;;;9.27;36.99
38880;BME280;25887;30.194;-97.880;2023-02-12T06:02:37;99352.13;;;9.26;37.32
38880;BME280;25887;30.194;-97.880;2023-02-12T06:05:03;99340.97;;;9.26;37.14
38880;BME280;25887;30.194;-97.880;2023-02-12T06:07:29;99337.50;;;9.22;37.55
38880;BME280;25887;30.194;-97.880;2023-02-12T06:09:55;99338.31;;;9.19;37.30
38880;BME280;25887;30.194;-97.880;2023-02-12T06:12:41;99330.50;;;9.15;37.76
38880;BME280;25887;30.194;-97.880;2023-02-12T06:15:07;99320.13;;;9.10;37.58
38880;BME280;25887;30.194;-97.880;2023-02-12T06:17:37;99298.72;;;9.07;37.93
38880;BME280;25887;30.194;-97.880;2023-02-12T06:20:03;99296.09;;;9.04;37.28
38880;BME280;25887;30.194;-97.880;2023-02-12T06:22:29;99295.19;;;9.02;37.33
38880;BME280;25887;30.194;-97.880;2023-02-12T06:24:55;99294.31;;;9.01;38.01
38880;BME280;25887;30.194;-97.880;2023-02-12T06:27:21;99291.72;;;9.00;37.82
38880;BME280;25887;30.194;-97.880;2023-02-12T06:29:46;99295.19;;;9.02;37.53
38880;BME280;25887;30.194;-97.880;2023-02-12T06:32:12;99291.81;;;9.03;38.33
38880;BME280;25887;30.194;-97.880;2023-02-12T06:34:39;99293.53;;;9.04;38.18
38880;BME280;25887;30.194;-97.880;2023-02-12T06:37:05;99298.69;;;9.05;37.52
38880;BME280;25887;30.194;-97.880;2023-02-12T06:39:31;99296.94;;;9.03;38.22
38880;BME280;25887;30.194;-97.880;2023-02-12T06:41:56;99302.06;;;9.03;37.92
38880;BME280;25887;30.194;-97.880;2023-02-12T06:44:22;99308.91;;;9.04;38.12
38880;BME280;25887;30.194;-97.880;2023-02-12T06:46:48;99311.50;;;9.05;37.40
38880;BME280;25887;30.194;-97.880;2023-02-12T06:49:14;99320.06;;;9.06;38.22
38880;BME280;25887;30.194;-97.880;2023-02-12T06:51:41;99315.69;;;9.02;37.53
38880;BME280;25887;30.194;-97.880;2023-02-12T06:54:12;99307.09;;;9.00;38.60
38880;BME280;25887;30.194;-97.880;2023-02-12T06:56:39;99304.50;;;8.97;38.62
38880;BME280;25887;30.194;-97.880;2023-02-12T06:59:19;99293.31;;;8.94;38.14
38880;BME280;25887;30.194;-97.880;2023-02-12T07:01:45;99291.53;;;8.90;37.76
38880;BME280;25887;30.194;-97.880;2023-02-12T07:04:11;99281.25;;;8.87;37.60
38880;BME280;25887;30.194;-97.880;2023-02-12T07:06:37;99283.81;;;8.87;38.16
38880;BME280;25887;30.194;-97.880;2023-02-12T07:09:05;99282.88;;;8.85;38.35
38880;BME280;25887;30.194;-97.880;2023-02-12T07:11:57;99276.91;;;8.85;38.21
38880;BME280;25887;30.194;-97.880;2023-02-12T07:14:23;99276.03;;;8.84;38.78
38880;BME280;25887;30.194;-97.880;2023-02-12T07:16:50;99270.03;;;8.82;38.37
38880;BME280;25887;30.194;-97.880;2023-02-12T07:19:36;99275.97;;;8.80;38.29
38880;BME280;25887;30.194;-97.880;2023-02-12T07:22:03;99269.94;;;8.79;38.33
38880;BME280;25887;30.194;-97.880;2023-02-12T07:24:40;99277.63;;;8.79;38.28
38880;BME280;25887;30.194;-97.880;2023-02-12T07:27:06;99287.00;;;8.79;38.04
38880;BME280;25887;30.194;-97.880;2023-02-12T07:29:31;99296.41;;;8.78;38.13
38880;BME280;25887;30.194;-97.880;2023-02-12T07:31:57;99291.28;;;8.78;38.44
38880;BME280;25887;30.194;-97.880;2023-02-12T07:34:23;99294.75;;;8.80;38.57
38880;BME280;25887;30.194;-97.880;2023-02-12T07:36:49;99289.63;;;8.80;38.65
38880;BME280;25887;30.194;-97.880;2023-02-12T07:39:14;99290.50;;;8.81;38.59
38880;BME280;25887;30.194;-97.880;2023-02-12T07:41:40;99299.81;;;8.79;38.63
38880;BME280;25887;30.194;-97.880;2023-02-12T07:44:13;99301.53;;;8.78;38.41
38880;BME280;25887;30.194;-97.880;2023-02-12T07:46:43;99296.41;;;8.78;38.77
38880;BME280;25887;30.194;-97.880;2023-02-12T07:49:13;99295.53;;;8.78;38.36
38880;BME280;25887;30.194;-97.880;2023-02-12T07:51:39;99273.34;;;8.78;38.65
38880;BME280;25887;30.194;-97.880;2023-02-12T07:54:11;99269.03;;;8.76;38.34
38880;BME280;25887;30.194;-97.880;2023-02-12T07:56:37;99257.00;;;8.72;38.28
38880;BME280;25887;30.194;-97.880;2023-02-12T07:59:05;99261.16;;;8.68;38.24
38880;BME280;25887;30.194;-97.880;2023-02-12T08:01:46;99267.06;;;8.64;38.95
38880;BME280;25887;30.194;-97.880;2023-02-12T08:04:13;99255.00;;;8.58;39.08
38880;BME280;25887;30.194;-97.880;2023-02-12T08:06:41;99261.72;;;8.55;38.67
38880;BME280;25887;30.194;-97.880;2023-02-12T08:09:09;99263.41;;;8.53;38.73
38880;BME280;25887;30.194;-97.880;2023-02-12T08:11:36;99264.22;;;8.52;38.98
38880;BME280;25887;30.194;-97.880;2023-02-12T08:14:20;99268.50;;;8.53;38.78
38880;BME280;25887;30.194;-97.880;2023-02-12T08:16:47;99273.66;;;8.54;39.22
38880;BME280;25887;30.194;-97.880;2023-02-12T08:19:13;99268.56;;;8.56;38.97
38880;BME280;25887;30.194;-97.880;2023-02-12T08:21:57;99267.78;;;8.57;38.95
38880;BME280;25887;30.194;-97.880;2023-02-12T08:24:24;99254.88;;;8.54;39.23
38880;BME280;25887;30.194;-97.880;2023-02-12T08:26:50;99243.75;;;8.52;39.16
38880;BME280;25887;30.194;-97.880;2023-02-12T08:29:17;99230.91;;;8.50;39.54
38880;BME280;25887;30.194;-97.880;2023-02-12T08:31:44;99244.59;;;8.51;39.29
38880;BME280;25887;30.194;-97.880;2023-02-12T08:34:20;99252.22;;;8.49;39.43
38880;BME280;25887;30.194;-97.880;2023-02-12T08:36:46;99243.63;;;8.47;39.64
38880;BME280;25887;30.194;-97.880;2023-02-12T08:39:33;99249.56;;;8.45;39.75
38880;BME280;25887;30.194;-97.880;2023-02-12T08:42:17;99258.06;;;8.44;39.30
38880;BME280;25887;30.194;-97.880;2023-02-12T08:44:43;99250.38;;;8.42;39.86
38880;BME280;25887;30.194;-97.880;2023-02-12T08:47:09;99246.03;;;8.40;39.85
38880;BME280;25887;30.194;-97.880;2023-02-12T08:49:35;99245.03;;;8.34;39.69
38880;BME280;25887;30.194;-97.880;2023-02-12T08:52:01;99251.75;;;8.29;39.55
38880;BME280;25887;30.194;-97.880;2023-02-12T09:00:32;99243.69;;;8.14;39.34
38880;BME280;25887;30.194;-97.880;2023-02-12T09:03:11;99236.78;;;8.10;39.33
38880;BME280;25887;30.194;-97.880;2023-02-12T09:05:37;99228.16;;;8.06;39.52
38880;BME280;25887;30.194;-97.880;2023-02-12T09:08:40;99222.97;;;8.02;39.93
38880;BME280;25887;30.194;-97.880;2023-02-12T09:11:07;99229.72;;;8.00;39.59
38880;BME280;25887;30.194;-97.880;2023-02-12T09:13:34;99227.94;;;7.97;39.41
38880;BME280;25887;30.194;-97.880;2023-02-12T09:16:02;99229.66;;;7.97;40.10
38880;BME280;25887;30.194;-97.880;2023-02-12T09:18:28;99228.69;;;7.93;40.04
38880;BME280;25887;30.194;-97.880;2023-02-12T09:20:54;99237.16;;;7.91;39.86
38880;BME280;25887;30.194;-97.880;2023-02-12T09:23:38;99231.13;;;7.87;39.73
38880;BME280;25887;30.194;-97.880;2023-02-12T09:26:16;99226.75;;;7.83;39.72
38880;BME280;25887;30.194;-97.880;2023-02-12T09:28:46;99241.19;;;7.79;39.85
38880;BME280;25887;30.194;-97.880;2023-02-12T09:31:27;99234.22;;;7.75;40.34
38880;BME280;25887;30.194;-97.880;2023-02-12T09:33:54;99232.44;;;7.71;40.01
38880;BME280;25887;30.194;-97.880;2023-02-12T09:36:22;99225.50;;;7.67;40.47
38880;BME280;25887;30.194;-97.880;2023-02-12T09:38:48;99220.34;;;7.64;40.34
38880;BME280;25887;30.194;-97.880;2023-02-12T09:41:30;99212.53;;;7.60;40.13
38880;BME280;25887;30.194;-97.880;2023-02-12T09:51:41;99204.50;;;7.46;40.06
38880;BME280;25887;30.194;-97.880;2023-02-12T09:54:12;99205.38;;;7.46;40.12
38880;BME280;25887;30.194;-97.880;2023-02-12T09:56:39;99203.66;;;7.47;40.35
38880;BME280;25887;30.194;-97.880;2023-02-12T09:59:07;99206.22;;;7.47;40.65
38880;BME280;25887;30.194;-97.880;2023-02-12T10:01:33;99199.47;;;7.47;40.65
38880;BME280;25887;30.194;-97.880;2023-02-12T10:03:59;99206.22;;;7.47;40.63
38880;BME280;25887;30.194;-97.880;2023-02-12T10:06:27;99198.53;;;7.45;40.76
38880;BME280;25887;30.194;-97.880;2023-02-12T10:16:48;99192.25;;;7.33;40.31
38880;BME280;25887;30.194;-97.880;2023-02-12T10:19:22;99194.72;;;7.30;40.67
38880;BME280;25887;30.194;-97.880;2023-02-12T10:31:05;99190.00;;;7.12;40.94
38880;BME280;25887;30.194;-97.880;2023-02-12T10:37:16;99192.59;;;7.13;40.93
38880;BME280;25887;30.194;-97.880;2023-02-12T10:43:31;99207.19;;;7.17;40.64
38880;BME280;25887;30.194;-97.880;2023-02-12T10:49:44;99190.13;;;7.16;40.83
38880;BME280;25887;30.194;-97.880;2023-02-12T10:56:04;99190.03;;;7.13;40.96
38880;BME280;25887;30.194;-97.880;2023-02-12T11:05:28;99189.63;;;6.98;40.80
38880;BME280;25887;30.194;-97.880;2023-02-12T11:08:32;99194.72;;;6.98;40.96
38880;BME280;25887;30.194;-97.880;2023-02-12T11:11:49;99193.00;;;6.97;40.95
38880;BME280;25887;30.194;-97.880;2023-02-12T11:18:03;99181.91;;;6.96;41.24
38880;BME280;25887;30.194;-97.880;2023-02-12T11:21:29;99198.03;;;6.94;41.25
38880;BME280;25887;30.194;-97.880;2023-02-12T11:24:39;99201.44;;;6.94;40.95
38880;BME280;25887;30.194;-97.880;2023-02-12T11:30:56;99206.53;;;6.93;41.12
38880;BME280;25887;30.194;-97.880;2023-02-12T11:33:41;99190.19;;;6.88;41.25
38880;BME280;25887;30.194;-97.880;2023-02-12T11:42:36;99171.22;;;6.78;41.32
38880;BME280;25887;30.194;-97.880;2023-02-12T11:45:03;99168.56;;;6.75;41.09
38880;BME280;25887;30.194;-97.880;2023-02-12T11:47:30;99186.34;;;6.72;41.19
38880;BME280;25887;30.194;-97.880;2023-02-12T11:52:24;99170.94;;;6.69;41.26
38880;BME280;25887;30.194;-97.880;2023-02-12T11:54:55;99166.66;;;6.68;41.20
38880;BME280;25887;30.194;-97.880;2023-02-12T11:57:36;99163.22;;;6.67;41.43
38880;BME280;25887;30.194;-97.880;2023-02-12T12:00:45;99170.88;;;6.67;41.50
38880;BME280;25887;30.194;-97.880;2023-02-12T12:05:37;99166.75;;;6.71;41.61
38880;BME280;25887;30.194;-97.880;2023-02-12T12:09:04;99165.06;;;6.72;41.69
38880;BME280;25887;30.194;-97.880;2023-02-12T12:11:40;99167.63;;;6.72;41.47
38880;BME280;25887;30.194;-97.880;2023-02-12T12:16:53;99161.00;;;6.78;41.54
38880;BME280;25887;30.194;-97.880;2023-02-12T12:19:58;99167.84;;;6.81;41.41
38880;BME280;25887;30.194;-97.880;2023-02-12T12:22:35;99174.72;;;6.83;41.55
38880;BME280;25887;30.194;-97.880;2023-02-12T12:25:26;99160.38;;;6.87;41.62
38880;BME280;25887;30.194;-97.880;2023-02-12T12:28:14;99168.94;;;6.89;41.55
38880;BME280;25887;30.194;-97.880;2023-02-12T12:30:47;99162.16;;;6.91;41.47
38880;BME280;25887;30.194;-97.880;2023-02-12T12:33:40;99171.53;;;6.90;41.79
38880;BME280;25887;30.194;-97.880;2023-02-12T12:39:05;99167.03;;;6.82;41.97
38880;BME280;25887;30.194;-97.880;2023-02-12T12:52:03;99175.41;;;6.46;41.45
38880;BME280;25887;30.194;-97.880;2023-02-12T13:22:35;99220.84;;;6.02;41.99
38880;BME280;25887;30.194;-97.880;2023-02-12T13:25:22;99202.16;;;6.03;42.35
38880;BME280;25887;30.194;-97.880;2023-02-12T13:27:50;99209.91;;;6.06;42.26
38880;BME280;25887;30.194;-97.880;2023-02-12T13:33:09;99201.69;;;6.15;42.13
38880;BME280;25887;30.194;-97.880;2023-02-12T13:35:40;99197.63;;;6.22;42.22
38880;BME280;25887;30.194;-97.880;2023-02-12T13:38:07;99196.16;;;6.30;42.34
38880;BME280;25887;30.194;-97.880;2023-02-12T13:40:37;99198.19;;;6.40;42.65
38880;BME280;25887;30.194;-97.880;2023-02-12T13:45:47;99209.09;;;6.64;42.50
38880;BME280;25887;30.194;-97.880;2023-02-12T13:48:28;99213.69;;;6.76;42.47
38880;BME280;25887;30.194;-97.880;2023-02-12T13:56:40;99200.34;;;7.16;42.45
38880;BME280;25887;30.194;-97.880;2023-02-12T14:04:39;99187.66;;;7.54;43.03
38880;BME280;25887;30.194;-97.880;2023-02-12T14:07:14;99196.53;;;7.68;43.02
38880;BME280;25887;30.194;-97.880;2023-02-12T14:12:08;99189.41;;;7.90;42.49
38880;BME280;25887;30.194;-97.880;2023-02-12T14:14:41;99189.59;;;7.99;42.90
38880;BME280;25887;30.194;-97.880;2023-02-12T14:19:54;99196.91;;;8.20;43.10
38880;BME280;25887;30.194;-97.880;2023-02-12T14:24:52;99178.66;;;8.42;42.81
38880;BME280;25887;30.194;-97.880;2023-02-12T14:30:23;99177.94;;;9.37;42.19
38880;BME280;25887;30.194;-97.880;2023-02-12T14:40:51;99177.75;;;11.90;40.09
38880;BME280;25887;30.194;-97.880;2023-02-12T14:43:35;99187.06;;;11.77;40.23
38880;BME280;25887;30.194;-97.880;2023-02-12T14:49:15;99183.81;;;11.98;40.36
38880;BME280;25887;30.194;-97.880;2023-02-12T14:51:50;99178.66;;;11.95;40.47
38880;BME280;25887;30.194;-97.880;2023-02-12T14:54:31;99184.53;;;11.82;40.84
38880;BME280;25887;30.194;-97.880;2023-02-12T14:56:59;99190.41;;;11.67;41.16
38880;BME280;25887;30.194;-97.880;2023-02-12T14:59:27;99187.75;;;11.59;41.36
38880;BME280;25887;30.194;-97.880;2023-02-12T15:01:57;99192.03;;;11.56;41.73
38880;BME280;25887;30.194;-97.880;2023-02-12T15:04:26;99198.91;;;11.58;41.80
38880;BME280;25887;30.194;-97.880;2023-02-12T15:07:00;99193.81;;;11.61;41.61
38880;BME280;25887;30.194;-97.880;2023-02-12T15:12:38;99193.09;;;11.78;42.04
38880;BME280;25887;30.194;-97.880;2023-02-12T15:18:19;99203.47;;;11.88;41.70
38880;BME280;25887;30.194;-97.880;2023-02-12T15:20:42;99205.31;;;11.98;42.18
38880;BME280;25887;30.194;-97.880;2023-02-12T15:25:53;99195.22;;;12.31;41.85
38880;BME280;25887;30.194;-97.880;2023-02-12T15:28:20;99200.38;;;12.37;41.64
38880;BME280;25887;30.194;-97.880;2023-02-12T15:30:48;99197.00;;;12.44;41.86
38880;BME280;25887;30.194;-97.880;2023-02-12T15:33:20;99201.38;;;12.54;41.56
38880;BME280;25887;30.194;-97.880;2023-02-12T15:35:48;99186.78;;;12.65;41.79
38880;BME280;25887;30.194;-97.880;2023-02-12T15:38:19;99186.00;;;12.80;41.73
38880;BME280;25887;30.194;-97.880;2023-02-12T15:40:53;99192.94;;;12.99;41.46
38880;BME280;25887;30.194;-97.880;2023-02-12T15:43:19;99192.16;;;13.19;41.69
38880;BME280;25887;30.194;-97.880;2023-02-12T15:45:49;99188.75;;;13.30;41.44
38880;BME280;25887;30.194;-97.880;2023-02-12T15:51:29;99188.78;;;13.53;41.11
38880;BME280;25887;30.194;-97.880;2023-02-12T15:56:52;99186.22;;;13.64;41.15
38880;BME280;25887;30.194;-97.880;2023-02-12T15:59:19;99180.22;;;13.73;41.27
38880;BME280;25887;30.194;-97.880;2023-02-12T16:01:56;99187.09;;;13.86;40.93
38880;BME280;25887;30.194;-97.880;2023-02-12T16:04:23;99191.38;;;14.08;40.88
38880;BME280;25887;30.194;-97.880;2023-02-12T16:07:02;99190.50;;;14.32;41.04
38880;BME280;25887;30.194;-97.880;2023-02-12T16:09:31;99199.06;;;14.53;40.85
38880;BME280;25887;30.194;-97.880;2023-02-12T16:14:53;99195.56;;;14.75;40.63
38880;BME280;25887;30.194;-97.880;2023-02-12T16:19:55;99213.59;;;14.90;40.51
38880;BME280;25887;30.194;-97.880;2023-02-12T16:22:22;99227.38;;;15.00;40.32
38880;BME280;25887;30.194;-97.880;2023-02-12T16:25:30;99229.03;;;15.13;40.29
38880;BME280;25887;30.194;-97.880;2023-02-12T16:30:30;99228.06;;;15.31;39.81
38880;BME280;25887;30.194;-97.880;2023-02-12T16:32:56;99230.59;;;15.40;39.71
38880;BME280;25887;30.194;-97.880;2023-02-12T16:35:27;99227.13;;;15.49;39.65
38880;BME280;25887;30.194;-97.880;2023-02-12T16:37:56;99233.09;;;15.58;39.50
38880;BME280;25887;30.194;-97.880;2023-02-12T16:40:43;99239.09;;;15.68;39.23
38880;BME280;25887;30.194;-97.880;2023-02-12T16:43:29;99239.91;;;15.78;39.18
38880;BME280;25887;30.194;-97.880;2023-02-12T16:46:00;99237.22;;;15.87;38.70
38880;BME280;25887;30.194;-97.880;2023-02-12T16:48:27;99235.44;;;15.94;38.47
38880;BME280;25887;30.194;-97.880;2023-02-12T16:50:55;99232.78;;;16.04;38.54
38880;BME280;25887;30.194;-97.880;2023-02-12T16:53:32;99220.59;;;16.15;38.58
38880;BME280;25887;30.194;-97.880;2023-02-12T16:55:59;99212.72;;;16.28;38.41
38880;BME280;25887;30.194;-97.880;2023-02-12T16:58:26;99211.78;;;16.35;38.22
38880;BME280;25887;30.194;-97.880;2023-02-12T17:00:53;99207.38;;;16.43;38.15
38880;BME280;25887;30.194;-97.880;2023-02-12T17:03:19;99193.47;;;16.50;38.00
38880;BME280;25887;30.194;-97.880;2023-02-12T17:05:45;99201.09;;;16.62;38.00
38880;BME280;25887;30.194;-97.880;2023-02-12T17:08:18;99188.94;;;16.69;37.66
38880;BME280;25887;30.194;-97.880;2023-02-12T17:10:44;99187.94;;;16.79;37.63
38880;BME280;25887;30.194;-97.880;2023-02-12T17:13:10;99181.78;;;16.88;37.49
38880;BME280;25887;30.194;-97.880;2023-02-12T17:15:37;99186.00;;;16.98;37.39
38880;BME280;25887;30.194;-97.880;2023-02-12T17:18:07;99185.00;;;17.08;37.40
38880;BME280;25887;30.194;-97.880;2023-02-12T17:20:35;99191.75;;;17.21;37.40
38880;BME280;25887;30.194;-97.880;2023-02-12T17:23:15;99179.44;;;17.33;36.96
38880;BME280;25887;30.194;-97.880;2023-02-12T17:25:41;99180.19;;;17.41;36.84
38880;BME280;25887;30.194;-97.880;2023-02-12T17:28:07;99172.25;;;17.50;36.72